sensor_id;sensor_type;location;lat;lon;timestamp;pressure;altitude;pressure_sealevel;temperature;humidity
62895;BME280;49204;44.916;37.998;2023-03-01T00:02:18;102175.19;;;5.40;60.31
62895;BME280;49204;44.916;37.998;2023-03-01T00:04:46;102172.59;;;5.41;60.43
62895;BME280;49204;44.916;37.998;2023-03-01T00:07:14;102174.34;;;5.41;60.35
62895;BME280;49204;44.916;37.998;2023-03-01T00:09:41;102171.25;;;5.38;60.30
62895;BME280;49204;44.916;37.998;2023-03-01T00:12:11;102173.45;;;5.42;60.21
62895;BME280;49204;44.916;37.998;2023-03-01T00:14:38;102162.56;;;5.39;60.23
62895;BME280;49204;44.916;37.998;2023-03-01T00:17:06;102168.67;;;5.41;60.16
62895;BME280;49204;44.916;37.998;2023-03-01T00:19:34;102171.75;;;5.44;60.01
62895;BME280;49204;44.916;37.998;2023-03-01T00:22:02;102167.38;;;5.48;59.87
62895;BME280;49204;44.916;37.998;2023-03-01T00:24:30;102168.27;;;5.51;59.80
62895;BME280;49204;44.916;37.998;2023-03-01T00:26:57;102160.89;;;5.52;59.80
62895;BME280;49204;44.916;37.998;2023-03-01T00:29:26;102154.38;;;5.54;59.74
62895;BME280;49204;44.916;37.998;2023-03-01T00:31:54;102158.29;;;5.54;59.73
62895;BME280;49204;44.916;37.998;2023-03-01T00:34:22;102153.50;;;5.52;59.75
62895;BME280;49204;44.916;37.998;2023-03-01T00:36:50;102149.13;;;5.51;59.65
62895;BME280;49204;44.916;37.998;2023-03-01T00:39:17;102150.00;;;5.53;59.64
62895;BME280;49204;44.916;37.998;2023-03-01T00:41:45;102153.48;;;5.55;59.60
62895;BME280;49204;44.916;37.998;2023-03-01T00:44:13;102153.52;;;5.58;59.58
62895;BME280;49204;44.916;37.998;2023-03-01T00:46:41;102160.50;;;5.59;59.49
62895;BME280;49204;44.916;37.998;2023-03-01T00:49:08;102161.36;;;5.59;59.42
62895;BME280;49204;44.916;37.998;2023-03-01T00:51:36;102136.97;;;5.62;59.32
62895;BME280;49204;44.916;37.998;2023-03-01T00:54:05;102135.25;;;5.63;59.29
62895;BME280;49204;44.916;37.998;2023-03-01T00:56:33;102145.70;;;5.61;59.29
62895;BME280;49204;44.916;37.998;2023-03-01T00:59:01;102136.53;;;5.58;59.21
62895;BME280;49204;44.916;37.998;2023-03-01T01:01:29;102133.05;;;5.57;59.15
62895;BME280;49204;44.916;37.998;2023-03-01T01:03:58;102124.77;;;5.53;59.05
62895;BME280;49204;44.916;37.998;2023-03-01T01:06:27;102116.44;;;5.48;59.13
62895;BME280;49204;44.916;37.998;2023-03-01T01:08:56;102112.96;;;5.43;59.18
62895;BME280;49204;44.916;37.998;2023-03-01T01:11:24;102111.63;;;5.39;59.18
62895;BME280;49204;44.916;37.998;2023-03-01T01:13:52;102111.63;;;5.35;59.16
62895;BME280;49204;44.916;37.998;2023-03-01T01:16:21;102101.59;;;5.31;59.24
62895;BME280;49204;44.916;37.998;2023-03-01T01:18:49;102112.05;;;5.31;59.24
62895;BME280;49204;44.916;37.998;2023-03-01T01:21:18;102127.23;;;5.22;59.56
62895;BME280;49204;44.916;37.998;2023-03-01T01:23:46;102135.47;;;5.19;59.48
62895;BME280;49204;44.916;37.998;2023-03-01T01:26:18;102128.06;;;5.20;59.39
62895;BME280;49204;44.916;37.998;2023-03-01T01:28:46;102101.08;;;5.15;59.27
62895;BME280;49204;44.916;37.998;2023-03-01T01:31:14;102098.41;;;5.09;59.22
62895;BME280;49204;44.916;37.998;2023-03-01T01:33:42;102104.91;;;5.02;59.12
62895;BME280;49204;44.916;37.998;2023-03-01T01:36:10;102093.99;;;4.95;59.14
62895;BME280;49204;44.916;37.998;2023-03-01T01:38:38;102105.70;;;4.88;59.22
62895;BME280;49204;44.916;37.998;2023-03-01T01:41:06;102111.30;;;4.81;59.34
62895;BME280;49204;44.916;37.998;2023-03-01T01:43:35;102102.99;;;4.75;59.45
62895;BME280;49204;44.916;37.998;2023-03-01T01:48:45;102088.61;;;4.69;59.47
62895;BME280;49204;44.916;37.998;2023-03-01T01:51:13;102110.73;;;4.61;59.49
62895;BME280;49204;44.916;37.998;2023-03-01T01:53:42;102120.68;;;4.54;59.60
62895;BME280;49204;44.916;37.998;2023-03-01T01:56:11;102117.19;;;4.52;59.59
62895;BME280;49204;44.916;37.998;2023-03-01T01:58:40;102120.22;;;4.50;59.61
62895;BME280;49204;44.916;37.998;2023-03-01T02:01:10;102114.09;;;4.48;59.63
62895;BME280;49204;44.916;37.998;2023-03-01T02:03:39;102107.14;;;4.47;59.65
62895;BME280;49204;44.916;37.998;2023-03-01T02:06:26;102108.41;;;4.44;59.74
62895;BME280;49204;44.916;37.998;2023-03-01T02:08:50;102105.80;;;4.41;59.88
62895;BME280;49204;44.916;37.998;2023-03-01T02:11:19;102095.75;;;4.39;60.08
62895;BME280;49204;44.916;37.998;2023-03-01T02:13:48;102099.23;;;4.38;60.05
62895;BME280;49204;44.916;37.998;2023-03-01T02:16:17;102113.12;;;4.37;59.93
62895;BME280;49204;44.916;37.998;2023-03-01T02:18:45;102110.94;;;4.35;59.87
62895;BME280;49204;44.916;37.998;2023-03-01T02:24:00;102097.84;;;4.27;60.15
62895;BME280;49204;44.916;37.998;2023-03-01T02:26:40;102102.13;;;4.22;60.36
62895;BME280;49204;44.916;37.998;2023-03-01T02:29:09;102091.68;;;4.17;60.67
62895;BME280;49204;44.916;37.998;2023-03-01T02:31:37;102088.98;;;4.08;60.98
62895;BME280;49204;44.916;37.998;2023-03-01T02:34:24;102099.33;;;4.02;61.08
62895;BME280;49204;44.916;37.998;2023-03-01T02:36:51;102082.71;;;3.88;61.37
62895;BME280;49204;44.916;37.998;2023-03-01T02:39:28;102089.12;;;3.78;61.65
62895;BME280;49204;44.916;37.998;2023-03-01T02:41:52;102097.79;;;3.77;61.72
62895;BME280;49204;44.916;37.998;2023-03-01T02:44:21;102070.00;;;3.76;61.52
62895;BME280;49204;44.916;37.998;2023-03-01T02:46:53;102078.66;;;3.75;61.82
62895;BME280;49204;44.916;37.998;2023-03-01T02:49:23;102089.09;;;3.75;61.53
62895;BME280;49204;44.916;37.998;2023-03-01T02:54:42;102069.88;;;3.67;61.76
62895;BME280;49204;44.916;37.998;2023-03-01T02:57:06;102073.80;;;3.68;61.56
62895;BME280;49204;44.916;37.998;2023-03-01T02:59:35;102068.59;;;3.68;61.43
62895;BME280;49204;44.916;37.998;2023-03-01T03:02:07;102049.95;;;3.69;61.45
62895;BME280;49204;44.916;37.998;2023-03-01T03:04:34;102044.24;;;3.65;61.73
62895;BME280;49204;44.916;37.998;2023-03-01T03:07:03;102056.41;;;3.64;61.55
62895;BME280;49204;44.916;37.998;2023-03-01T03:09:31;102046.44;;;3.65;61.40
62895;BME280;49204;44.916;37.998;2023-03-01T03:11:59;102040.80;;;3.66;61.31
62895;BME280;49204;44.916;37.998;2023-03-01T03:14:26;102042.94;;;3.65;61.28
62895;BME280;49204;44.916;37.998;2023-03-01T03:16:54;102040.33;;;3.62;61.63
62895;BME280;49204;44.916;37.998;2023-03-01T03:19:22;102024.14;;;3.52;62.13
62895;BME280;49204;44.916;37.998;2023-03-01T03:21:50;102023.98;;;3.36;62.43
62895;BME280;49204;44.916;37.998;2023-03-01T03:24:17;102034.29;;;3.27;63.19
62895;BME280;49204;44.916;37.998;2023-03-01T03:26:45;102046.83;;;3.23;62.92
62895;BME280;49204;44.916;37.998;2023-03-01T03:29:13;102046.38;;;3.22;62.73
62895;BME280;49204;44.916;37.998;2023-03-01T03:31:41;102044.66;;;3.24;62.62
62895;BME280;49204;44.916;37.998;2023-03-01T03:34:08;102057.72;;;3.27;62.75
62895;BME280;49204;44.916;37.998;2023-03-01T03:36:38;102050.80;;;3.29;62.44
62895;BME280;49204;44.916;37.998;2023-03-01T03:39:05;102049.08;;;3.31;62.33
62895;BME280;49204;44.916;37.998;2023-03-01T03:41:34;102048.67;;;3.33;62.19
62895;BME280;49204;44.916;37.998;2023-03-01T03:44:02;102038.73;;;3.36;62.17
62895;BME280;49204;44.916;37.998;2023-03-01T03:46:30;102038.73;;;3.36;62.10
62895;BME280;49204;44.916;37.998;2023-03-01T03:48:58;102036.13;;;3.37;62.02
62895;BME280;49204;44.916;37.998;2023-03-01T03:51:26;102040.92;;;3.39;61.98
62895;BME280;49204;44.916;37.998;2023-03-01T03:53:53;102045.75;;;3.41;61.91
62895;BME280;49204;44.916;37.998;2023-03-01T03:56:21;102029.25;;;3.42;61.83
62895;BME280;49204;44.916;37.998;2023-03-01T03:58:50;102024.50;;;3.43;61.96
62895;BME280;49204;44.916;37.998;2023-03-01T04:01:18;102045.78;;;3.46;61.94
62895;BME280;49204;44.916;37.998;2023-03-01T04:03:46;102049.66;;;3.44;62.03
62895;BME280;49204;44.916;37.998;2023-03-01T04:06:14;102034.92;;;3.43;61.97
62895;BME280;49204;44.916;37.998;2023-03-01T04:08:41;102036.20;;;3.42;62.01
62895;BME280;49204;44.916;37.998;2023-03-01T04:11:09;102043.05;;;3.35;62.38
62895;BME280;49204;44.916;37.998;2023-03-01T04:13:56;102027.37;;;3.29;62.45
62895;BME280;49204;44.916;37.998;2023-03-01T04:16:25;102030.41;;;3.28;62.57
62895;BME280;49204;44.916;37.998;2023-03-01T04:18:53;102029.14;;;3.33;62.40
62895;BME280;49204;44.916;37.998;2023-03-01T04:21:21;102023.52;;;3.35;62.29
62895;BME280;49204;44.916;37.998;2023-03-01T04:23:49;101995.36;;;3.38;62.46
62895;BME280;49204;44.916;37.998;2023-03-01T04:26:18;101980.15;;;3.37;62.33
62895;BME280;49204;44.916;37.998;2023-03-01T04:28:47;102013.13;;;3.37;62.65
62895;BME280;49204;44.916;37.998;2023-03-01T04:31:16;102023.09;;;3.34;62.59
62895;BME280;49204;44.916;37.998;2023-03-01T04:33:47;102020.92;;;3.35;62.59
62895;BME280;49204;44.916;37.998;2023-03-01T04:36:15;102015.70;;;3.32;62.73
62895;BME280;49204;44.916;37.998;2023-03-01T04:38:44;102029.97;;;3.29;62.96
62895;BME280;49204;44.916;37.998;2023-03-01T04:41:16;102034.77;;;3.31;62.75
62895;BME280;49204;44.916;37.998;2023-03-01T04:43:43;102029.61;;;3.34;62.55
62895;BME280;49204;44.916;37.998;2023-03-01T04:46:12;102032.64;;;3.35;62.50
62895;BME280;49204;44.916;37.998;2023-03-01T04:48:41;102039.19;;;3.38;62.41
62895;BME280;49204;44.916;37.998;2023-03-01T04:51:09;102037.04;;;3.41;62.30
62895;BME280;49204;44.916;37.998;2023-03-01T04:53:39;102027.08;;;3.42;62.37
62895;BME280;49204;44.916;37.998;2023-03-01T04:56:07;102034.50;;;3.45;62.31
62895;BME280;49204;44.916;37.998;2023-03-01T04:58:35;102036.23;;;3.45;62.46
62895;BME280;49204;44.916;37.998;2023-03-01T05:01:07;102027.55;;;3.46;62.58
62895;BME280;49204;44.916;37.998;2023-03-01T05:03:34;102027.11;;;3.43;62.56
62895;BME280;49204;44.916;37.998;2023-03-01T05:06:01;102050.05;;;3.38;62.58
62895;BME280;49204;44.916;37.998;2023-03-01T05:08:29;102053.52;;;3.38;62.48
62895;BME280;49204;44.916;37.998;2023-03-01T05:10:58;102042.73;;;3.43;62.56
62895;BME280;49204;44.916;37.998;2023-03-01T05:13:26;102045.33;;;3.43;62.64
62895;BME280;49204;44.916;37.998;2023-03-01T05:15:56;102030.11;;;3.43;62.70
62895;BME280;49204;44.916;37.998;2023-03-01T05:18:25;102030.14;;;3.44;62.67
62895;BME280;49204;44.916;37.998;2023-03-01T05:20:53;102037.08;;;3.44;62.75
62895;BME280;49204;44.916;37.998;2023-03-01T05:23:22;102046.64;;;3.46;62.62
62895;BME280;49204;44.916;37.998;2023-03-01T05:25:50;102025.86;;;3.50;62.57
62895;BME280;49204;44.916;37.998;2023-03-01T05:28:19;102016.80;;;3.56;62.47
62895;BME280;49204;44.916;37.998;2023-03-01T05:30:47;102021.66;;;3.62;62.35
62895;BME280;49204;44.916;37.998;2023-03-01T05:33:16;102022.60;;;3.69;62.28
62895;BME280;49204;44.916;37.998;2023-03-01T05:35:44;102023.95;;;3.75;62.20
62895;BME280;49204;44.916;37.998;2023-03-01T05:38:12;102023.58;;;3.80;62.19
62895;BME280;49204;44.916;37.998;2023-03-01T05:40:43;102033.18;;;3.86;62.20
62895;BME280;49204;44.916;37.998;2023-03-01T05:43:12;102024.13;;;3.94;62.19
62895;BME280;49204;44.916;37.998;2023-03-01T05:45:41;102025.06;;;4.03;62.14
62895;BME280;49204;44.916;37.998;2023-03-01T05:48:09;102032.12;;;4.14;62.04
62895;BME280;49204;44.916;37.998;2023-03-01T05:50:38;102031.33;;;4.22;61.89
62895;BME280;49204;44.916;37.998;2023-03-01T05:53:09;102009.63;;;4.30;61.73
62895;BME280;49204;44.916;37.998;2023-03-01T05:55:37;102018.82;;;4.36;61.64
62895;BME280;49204;44.916;37.998;2023-03-01T05:58:06;102016.21;;;4.39;61.65
62895;BME280;49204;44.916;37.998;2023-03-01T06:00:34;101995.41;;;4.45;61.65
62895;BME280;49204;44.916;37.998;2023-03-01T06:03:02;102018.06;;;4.55;61.62
62895;BME280;49204;44.916;37.998;2023-03-01T06:05:30;102026.83;;;4.67;61.52
62895;BME280;49204;44.916;37.998;2023-03-01T06:07:58;102017.78;;;4.76;61.49
62895;BME280;49204;44.916;37.998;2023-03-01T06:10:27;102027.78;;;4.81;61.45
62895;BME280;49204;44.916;37.998;2023-03-01T06:12:55;102038.70;;;4.88;61.56
62895;BME280;49204;44.916;37.998;2023-03-01T06:15:23;102036.50;;;4.84;61.74
62895;BME280;49204;44.916;37.998;2023-03-01T06:17:52;102032.60;;;4.86;61.71
62895;BME280;49204;44.916;37.998;2023-03-01T06:20:23;102036.59;;;4.98;61.63
62895;BME280;49204;44.916;37.998;2023-03-01T06:22:51;102035.80;;;5.18;61.42
62895;BME280;49204;44.916;37.998;2023-03-01T06:25:20;102017.13;;;5.28;61.27
62895;BME280;49204;44.916;37.998;2023-03-01T06:27:48;102013.66;;;5.32;61.14
62895;BME280;49204;44.916;37.998;2023-03-01T06:30:17;102010.16;;;5.28;61.22
62895;BME280;49204;44.916;37.998;2023-03-01T06:32:45;102003.61;;;5.19;61.25
62895;BME280;49204;44.916;37.998;2023-03-01T06:35:14;102001.41;;;5.14;61.29
62895;BME280;49204;44.916;37.998;2023-03-01T06:37:44;101995.28;;;5.09;61.43
62895;BME280;49204;44.916;37.998;2023-03-01T06:40:12;102009.21;;;5.11;61.29
62895;BME280;49204;44.916;37.998;2023-03-01T06:42:41;101994.90;;;5.17;61.17
62895;BME280;49204;44.916;37.998;2023-03-01T06:45:09;101978.83;;;5.28;61.01
62895;BME280;49204;44.916;37.998;2023-03-01T06:47:39;102000.16;;;5.34;60.89
62895;BME280;49204;44.916;37.998;2023-03-01T06:50:07;102002.78;;;5.40;60.78
62895;BME280;49204;44.916;37.998;2023-03-01T06:52:35;102003.25;;;5.44;60.63
62895;BME280;49204;44.916;37.998;2023-03-01T06:55:03;102010.63;;;5.41;60.64
62895;BME280;49204;44.916;37.998;2023-03-01T06:57:31;102005.42;;;5.51;60.60
62895;BME280;49204;44.916;37.998;2023-03-01T06:59:59;101987.19;;;5.82;60.43
62895;BME280;49204;44.916;37.998;2023-03-01T07:02:27;101987.23;;;6.12;60.17
62895;BME280;49204;44.916;37.998;2023-03-01T07:04:55;101994.19;;;6.23;59.83
62895;BME280;49204;44.916;37.998;2023-03-01T07:07:22;101987.66;;;6.26;59.65
62895;BME280;49204;44.916;37.998;2023-03-01T07:09:50;101985.45;;;6.27;59.66
62895;BME280;49204;44.916;37.998;2023-03-01T07:12:19;101983.28;;;6.28;59.53
62895;BME280;49204;44.916;37.998;2023-03-01T07:14:47;101977.16;;;6.29;59.50
62895;BME280;49204;44.916;37.998;2023-03-01T07:17:15;101971.08;;;6.33;59.41
62895;BME280;49204;44.916;37.998;2023-03-01T07:19:42;101969.77;;;6.34;59.24
62895;BME280;49204;44.916;37.998;2023-03-01T07:22:11;101968.89;;;6.40;59.09
62895;BME280;49204;44.916;37.998;2023-03-01T07:24:40;101971.94;;;6.32;59.05
62895;BME280;49204;44.916;37.998;2023-03-01T07:27:08;101969.74;;;6.36;59.04
62895;BME280;49204;44.916;37.998;2023-03-01T07:29:36;101973.22;;;6.40;58.71
62895;BME280;49204;44.916;37.998;2023-03-01T07:32:04;101960.98;;;6.55;58.59
62895;BME280;49204;44.916;37.998;2023-03-01T07:34:32;101971.84;;;6.72;58.11
62895;BME280;49204;44.916;37.998;2023-03-01T07:37:00;101979.22;;;6.86;57.48
62895;BME280;49204;44.916;37.998;2023-03-01T07:39:28;101973.91;;;6.99;57.67
62895;BME280;49204;44.916;37.998;2023-03-01T07:41:56;101975.09;;;7.26;57.60
62895;BME280;49204;44.916;37.998;2023-03-01T07:44:24;101962.97;;;7.79;56.18
62895;BME280;49204;44.916;37.998;2023-03-01T07:46:51;101971.69;;;7.81;56.01
62895;BME280;49204;44.916;37.998;2023-03-01T07:49:21;101956.88;;;7.73;56.23
62895;BME280;49204;44.916;37.998;2023-03-01T07:51:48;101955.18;;;7.66;56.17
62895;BME280;49204;44.916;37.998;2023-03-01T07:54:16;101948.16;;;7.73;56.26
62895;BME280;49204;44.916;37.998;2023-03-01T07:56:45;101953.28;;;7.84;56.22
62895;BME280;49204;44.916;37.998;2023-03-01T07:59:15;101959.91;;;7.74;56.07
62895;BME280;49204;44.916;37.998;2023-03-01T08:01:41;101951.76;;;7.58;56.13
62895;BME280;49204;44.916;37.998;2023-03-01T08:04:09;101951.76;;;7.58;56.32
62895;BME280;49204;44.916;37.998;2023-03-01T08:06:37;101958.66;;;7.68;56.16
62895;BME280;49204;44.916;37.998;2023-03-01T08:09:05;101962.00;;;7.87;55.88
62895;BME280;49204;44.916;37.998;2023-03-01T08:11:33;101965.64;;;8.23;55.66
62895;BME280;49204;44.916;37.998;2023-03-01T08:14:00;101973.66;;;8.55;55.10
62895;BME280;49204;44.916;37.998;2023-03-01T08:16:28;101971.84;;;8.61;54.83
62895;BME280;49204;44.916;37.998;2023-03-01T08:18:56;101964.81;;;8.63;55.00
62895;BME280;49204;44.916;37.998;2023-03-01T08:21:26;101967.81;;;8.69;55.00
62895;BME280;49204;44.916;37.998;2023-03-01T08:23:53;101970.69;;;8.85;54.63
62895;BME280;49204;44.916;37.998;2023-03-01T08:26:21;101975.05;;;8.85;54.06
62895;BME280;49204;44.916;37.998;2023-03-01T08:28:49;101963.80;;;8.74;53.98
62895;BME280;49204;44.916;37.998;2023-03-01T08:31:18;101955.04;;;8.76;53.81
62895;BME280;49204;44.916;37.998;2023-03-01T08:33:47;101964.65;;;8.76;54.23
62895;BME280;49204;44.916;37.998;2023-03-01T08:36:19;101963.30;;;8.80;54.23
62895;BME280;49204;44.916;37.998;2023-03-01T08:38:47;101963.58;;;8.92;53.86
62895;BME280;49204;44.916;37.998;2023-03-01T08:41:15;101954.64;;;9.05;53.17
62895;BME280;49204;44.916;37.998;2023-03-01T08:43:43;101947.70;;;9.00;52.83
62895;BME280;49204;44.916;37.998;2023-03-01T08:46:11;101947.91;;;9.18;52.28
62895;BME280;49204;44.916;37.998;2023-03-01T08:48:39;101944.75;;;9.26;52.75
62895;BME280;49204;44.916;37.998;2023-03-01T08:51:09;101942.81;;;9.39;52.57
62895;BME280;49204;44.916;37.998;2023-03-01T08:53:37;101927.16;;;9.58;52.14
62895;BME280;49204;44.916;37.998;2023-03-01T08:56:05;101919.31;;;9.82;51.44
62895;BME280;49204;44.916;37.998;2023-03-01T08:58:33;101914.47;;;9.85;51.42
62895;BME280;49204;44.916;37.998;2023-03-01T09:01:06;101908.79;;;9.82;51.47
62895;BME280;49204;44.916;37.998;2023-03-01T09:03:30;101908.25;;;9.89;51.70
62895;BME280;49204;44.916;37.998;2023-03-01T09:06:02;101895.88;;;10.18;50.45
62895;BME280;49204;44.916;37.998;2023-03-01T09:08:30;101905.15;;;10.39;50.12
62895;BME280;49204;44.916;37.998;2023-03-01T09:10:58;101896.72;;;10.66;49.99
62895;BME280;49204;44.916;37.998;2023-03-01T09:13:27;101893.05;;;10.73;49.82
62895;BME280;49204;44.916;37.998;2023-03-01T09:15:57;101889.56;;;10.72;49.33
62895;BME280;49204;44.916;37.998;2023-03-01T09:18:25;101881.02;;;10.61;49.29
62895;BME280;49204;44.916;37.998;2023-03-01T09:20:53;101872.08;;;10.47;49.24
62895;BME280;49204;44.916;37.998;2023-03-01T09:23:24;101865.60;;;10.42;49.44
62895;BME280;49204;44.916;37.998;2023-03-01T09:25:52;101865.52;;;10.46;49.71
62895;BME280;49204;44.916;37.998;2023-03-01T09:28:19;101853.62;;;10.49;49.78
62895;BME280;49204;44.916;37.998;2023-03-01T09:30:49;101859.07;;;10.39;49.69
62895;BME280;49204;44.916;37.998;2023-03-01T09:33:16;101854.12;;;10.22;49.52
62895;BME280;49204;44.916;37.998;2023-03-01T09:35:44;101858.14;;;10.18;49.50
62895;BME280;49204;44.916;37.998;2023-03-01T09:38:13;101852.06;;;9.92;48.83
62895;BME280;49204;44.916;37.998;2023-03-01T09:40:44;101846.59;;;9.80;48.98
62895;BME280;49204;44.916;37.998;2023-03-01T09:45:59;101839.68;;;9.74;48.69
62895;BME280;49204;44.916;37.998;2023-03-01T09:48:29;101839.70;;;9.73;48.65
62895;BME280;49204;44.916;37.998;2023-03-01T09:50:58;101834.09;;;9.69;48.35
62895;BME280;49204;44.916;37.998;2023-03-01T09:53:31;101828.10;;;9.83;48.12
62895;BME280;49204;44.916;37.998;2023-03-01T09:56:02;101828.14;;;10.05;48.13
62895;BME280;49204;44.916;37.998;2023-03-01T09:58:29;101824.30;;;10.45;47.58
62895;BME280;49204;44.916;37.998;2023-03-01T10:00:54;101822.83;;;10.91;46.73
62895;BME280;49204;44.916;37.998;2023-03-01T10:03:40;101821.34;;;11.53;45.86
62895;BME280;49204;44.916;37.998;2023-03-01T10:06:08;101820.69;;;11.61;45.77
62895;BME280;49204;44.916;37.998;2023-03-01T10:08:35;101828.44;;;11.84;45.38
62895;BME280;49204;44.916;37.998;2023-03-01T10:11:10;101818.98;;;12.54;44.10
62895;BME280;49204;44.916;37.998;2023-03-01T10:18:52;101806.10;;;14.52;42.17
62895;BME280;49204;44.916;37.998;2023-03-01T10:21:19;101810.02;;;14.42;41.76
62895;BME280;49204;44.916;37.998;2023-03-01T10:23:49;101799.89;;;14.41;41.86
62895;BME280;49204;44.916;37.998;2023-03-01T10:26:20;101794.23;;;14.62;41.75
62895;BME280;49204;44.916;37.998;2023-03-01T10:31:22;101794.94;;;14.32;42.30
62895;BME280;49204;44.916;37.998;2023-03-01T10:33:49;101793.81;;;14.49;42.10
62895;BME280;49204;44.916;37.998;2023-03-01T10:36:18;101790.42;;;14.70;41.07
62895;BME280;49204;44.916;37.998;2023-03-01T10:38:50;101789.89;;;14.83;42.26
62895;BME280;49204;44.916;37.998;2023-03-01T10:41:24;101794.98;;;14.54;42.31
62895;BME280;49204;44.916;37.998;2023-03-01T10:43:54;101788.77;;;14.08;42.62
62895;BME280;49204;44.916;37.998;2023-03-01T10:46:26;101787.59;;;13.55;43.26
62895;BME280;49204;44.916;37.998;2023-03-01T10:51:37;101786.24;;;12.74;43.59
62895;BME280;49204;44.916;37.998;2023-03-01T10:54:06;101794.36;;;12.39;44.12
62895;BME280;49204;44.916;37.998;2023-03-01T10:56:45;101787.67;;;12.12;44.70
62895;BME280;49204;44.916;37.998;2023-03-01T10:59:05;101791.05;;;12.01;44.46
62895;BME280;49204;44.916;37.998;2023-03-01T11:01:33;101792.77;;;11.85;43.98
62895;BME280;49204;44.916;37.998;2023-03-01T11:06:34;101788.21;;;11.75;44.29
62895;BME280;49204;44.916;37.998;2023-03-01T11:09:15;101784.22;;;11.77;44.42
62895;BME280;49204;44.916;37.998;2023-03-01T11:11:43;101778.50;;;11.94;43.36
62895;BME280;49204;44.916;37.998;2023-03-01T11:14:15;101775.39;;;11.94;43.92
62895;BME280;49204;44.916;37.998;2023-03-01T11:16:45;101783.47;;;11.72;43.57
62895;BME280;49204;44.916;37.998;2023-03-01T11:19:18;101782.74;;;11.49;44.12
62895;BME280;49204;44.916;37.998;2023-03-01T11:22:28;101776.03;;;11.37;44.15
62895;BME280;49204;44.916;37.998;2023-03-01T11:24:18;101776.91;;;11.70;43.98
62895;BME280;49204;44.916;37.998;2023-03-01T11:26:47;101778.58;;;11.89;43.41
62895;BME280;49204;44.916;37.998;2023-03-01T11:29:26;101771.17;;;12.04;43.27
62895;BME280;49204;44.916;37.998;2023-03-01T11:31:51;101765.87;;;12.63;42.73
62895;BME280;49204;44.916;37.998;2023-03-01T11:34:27;101767.33;;;13.54;41.76
62895;BME280;49204;44.916;37.998;2023-03-01T11:36:53;101763.50;;;14.23;41.03
62895;BME280;49204;44.916;37.998;2023-03-01T11:39:23;101763.48;;;14.70;40.61
62895;BME280;49204;44.916;37.998;2023-03-01T11:41:48;101749.80;;;14.91;40.49
62895;BME280;49204;44.916;37.998;2023-03-01T11:44:24;101750.21;;;15.02;40.36
62895;BME280;49204;44.916;37.998;2023-03-01T11:54:41;101756.16;;;12.79;40.21
62895;BME280;49204;44.916;37.998;2023-03-01T11:57:16;101757.94;;;12.20;40.50
62895;BME280;49204;44.916;37.998;2023-03-01T12:10:28;101745.06;;;10.93;42.14
62895;BME280;49204;44.916;37.998;2023-03-01T12:20:51;101729.16;;;10.60;41.68
62895;BME280;49204;44.916;37.998;2023-03-01T12:26:14;101716.31;;;10.64;41.43
62895;BME280;49204;44.916;37.998;2023-03-01T12:28:48;101715.00;;;10.64;40.70
62895;BME280;49204;44.916;37.998;2023-03-01T12:31:16;101713.84;;;10.58;40.70
62895;BME280;49204;44.916;37.998;2023-03-01T12:39:24;101710.75;;;10.58;39.82
62895;BME280;49204;44.916;37.998;2023-03-01T12:47:14;101719.22;;;10.34;38.87
62895;BME280;49204;44.916;37.998;2023-03-01T12:52:17;101721.81;;;9.93;35.58
62895;BME280;49204;44.916;37.998;2023-03-01T12:54:46;101722.73;;;9.68;37.69
62895;BME280;49204;44.916;37.998;2023-03-01T12:57:26;101722.41;;;9.62;38.51
62895;BME280;49204;44.916;37.998;2023-03-01T13:00:02;101723.86;;;9.56;38.82
62895;BME280;49204;44.916;37.998;2023-03-01T13:02:35;101723.59;;;9.46;38.74
62895;BME280;49204;44.916;37.998;2023-03-01T13:07:29;101718.61;;;9.32;38.73
62895;BME280;49204;44.916;37.998;2023-03-01T13:09:58;101712.97;;;9.30;38.61
62895;BME280;49204;44.916;37.998;2023-03-01T13:17:52;101711.75;;;9.47;37.16
62895;BME280;49204;44.916;37.998;2023-03-01T13:20:21;101719.05;;;9.56;38.13
62895;BME280;49204;44.916;37.998;2023-03-01T13:23:00;101711.50;;;9.61;37.99
62895;BME280;49204;44.916;37.998;2023-03-01T13:25:19;101711.55;;;9.58;37.13
62895;BME280;49204;44.916;37.998;2023-03-01T13:27:47;101704.00;;;9.62;38.17
62895;BME280;49204;44.916;37.998;2023-03-01T13:35:42;101699.69;;;9.37;37.93
62895;BME280;49204;44.916;37.998;2023-03-01T13:40:57;101707.16;;;9.11;38.89
62895;BME280;49204;44.916;37.998;2023-03-01T13:43:32;101711.33;;;8.98;39.07
62895;BME280;49204;44.916;37.998;2023-03-01T13:46:01;101704.14;;;8.82;38.78
62895;BME280;49204;44.916;37.998;2023-03-01T13:48:29;101708.75;;;8.66;39.02
62895;BME280;49204;44.916;37.998;2023-03-01T13:51:02;101699.33;;;8.55;38.45
62895;BME280;49204;44.916;37.998;2023-03-01T13:53:29;101692.91;;;8.45;39.74
62895;BME280;49204;44.916;37.998;2023-03-01T13:56:00;101696.03;;;8.37;40.03
62895;BME280;49204;44.916;37.998;2023-03-01T13:58:26;101699.59;;;8.33;40.28
62895;BME280;49204;44.916;37.998;2023-03-01T14:00:59;101699.58;;;8.35;40.28
62895;BME280;49204;44.916;37.998;2023-03-01T14:03:27;101697.45;;;8.31;40.08
62895;BME280;49204;44.916;37.998;2023-03-01T14:06:00;101692.36;;;8.19;39.84
62895;BME280;49204;44.916;37.998;2023-03-01T14:08:29;101699.92;;;8.11;40.30
62895;BME280;49204;44.916;37.998;2023-03-01T14:16:39;101704.13;;;7.88;40.36
62895;BME280;49204;44.916;37.998;2023-03-01T14:19:15;101707.78;;;7.77;41.05
62895;BME280;49204;44.916;37.998;2023-03-01T14:21:45;101709.61;;;7.68;41.31
62895;BME280;49204;44.916;37.998;2023-03-01T14:24:22;101708.41;;;7.59;41.50
62895;BME280;49204;44.916;37.998;2023-03-01T14:26:50;101710.27;;;7.49;41.50